createdAt,value
2019-06-26T00:02:23.153Z,65.28
2019-06-26T00:04:51.787Z,65.34
2019-06-26T00:07:20.413Z,64.75
2019-06-26T00:09:49.140Z,64.17
2019-06-26T00:12:17.832Z,65.18
2019-06-26T00:14:46.460Z,66.97
2019-06-26T00:17:15.100Z,66.42
2019-06-26T00:19:43.729Z,65.62
2019-06-26T00:22:12.358Z,65.90
2019-06-26T00:24:41.010Z,64.99
2019-06-26T00:27:09.649Z,66.96
2019-06-26T00:29:38.285Z,67.09
2019-06-26T00:32:06.938Z,64.87
2019-06-26T00:34:35.626Z,65.15
2019-06-26T00:37:04.242Z,65.70
2019-06-26T00:39:32.907Z,65.43
2019-06-26T00:42:01.613Z,65.27
2019-06-26T00:44:30.231Z,64.05
2019-06-26T00:46:58.887Z,63.44
2019-06-26T00:49:27.530Z,64.33
2019-06-26T00:51:56.158Z,63.94
2019-06-26T00:54:24.819Z,65.28
2019-06-26T00:56:53.453Z,64.43
2019-06-26T00:59:22.061Z,64.25
2019-06-26T01:01:50.784Z,63.96
2019-06-26T01:04:26.669Z,64.29
2019-06-26T01:06:55.216Z,63.75
2019-06-26T01:09:23.939Z,63.65
2019-06-26T01:11:52.566Z,63.30
2019-06-26T01:14:21.200Z,63.12
2019-06-26T01:16:49.863Z,62.51
2019-06-26T01:19:18.495Z,61.88
2019-06-26T01:21:47.133Z,62.46
2019-06-26T01:24:15.932Z,62.43
2019-06-26T01:26:44.552Z,62.76
2019-06-26T01:29:13.178Z,62.98
2019-06-26T01:31:41.829Z,62.54
2019-06-26T01:34:10.455Z,61.40
2019-06-26T01:36:39.076Z,62.65
2019-06-26T01:39:07.752Z,65.46
2019-06-26T01:41:36.377Z,64.03
2019-06-26T01:44:14.907Z,64.01
2019-06-26T01:46:35.748Z,64.40
2019-06-26T01:49:04.377Z,66.15
2019-06-26T01:51:32.997Z,65.98
2019-06-26T01:54:01.646Z,65.48
2019-06-26T01:56:30.266Z,65.71
2019-06-26T01:58:58.903Z,64.68
2019-06-26T02:01:27.557Z,64.40
2019-06-26T02:03:56.190Z,65.25
2019-06-26T02:06:24.829Z,63.91
2019-06-26T02:08:53.486Z,63.86
2019-06-26T02:11:22.108Z,63.79
2019-06-26T02:13:50.668Z,63.08
2019-06-26T02:16:19.332Z,62.89
2019-06-26T02:18:52.306Z,63.74
2019-06-26T02:21:20.930Z,63.35
2019-06-26T02:23:49.591Z,63.21
2019-06-26T02:26:18.214Z,63.47
2019-06-26T02:28:46.846Z,62.08
2019-06-26T02:31:15.497Z,61.12
2019-06-26T02:33:44.113Z,61.25
2019-06-26T02:36:12.741Z,62.28
2019-06-26T02:38:41.404Z,61.77
2019-06-26T02:41:10.017Z,61.05
2019-06-26T02:43:38.644Z,61.12
2019-06-26T02:46:07.320Z,63.42
2019-06-26T02:48:35.941Z,62.51
2019-06-26T02:51:04.567Z,62.70
2019-06-26T02:53:33.227Z,62.45
2019-06-26T02:56:01.845Z,62.02
2019-06-26T02:58:30.470Z,62.42
2019-06-26T03:00:59.109Z,62.40
2019-06-26T03:03:27.739Z,63.00
2019-06-26T03:05:56.450Z,62.63
2019-06-26T03:08:25.195Z,61.82
2019-06-26T03:10:53.815Z,61.89
2019-06-26T03:13:22.362Z,61.63
2019-06-26T03:15:51.038Z,63.12
2019-06-26T03:18:19.658Z,62.25
2019-06-26T03:20:55.911Z,61.93
2019-06-26T03:23:25.498Z,62.98
2019-06-26T03:25:54.139Z,62.43
2019-06-26T03:28:22.766Z,62.75
2019-06-26T03:30:51.419Z,62.16
2019-06-26T03:33:20.047Z,63.37
2019-06-26T03:35:48.663Z,63.34
2019-06-26T03:38:17.378Z,62.45
2019-06-26T03:40:46.109Z,61.98
2019-06-26T03:43:14.730Z,61.93
2019-06-26T03:45:43.409Z,61.64
2019-06-26T03:48:12.004Z,61.69
2019-06-26T03:50:40.633Z,60.97
2019-06-26T03:53:09.391Z,60.68
2019-06-26T03:55:38.055Z,60.54
2019-06-26T03:58:06.681Z,61.47
2019-06-26T04:00:42.477Z,61.89
2019-06-26T04:03:12.506Z,62.25
2019-06-26T04:05:41.138Z,63.24
2019-06-26T04:08:09.819Z,63.76
2019-06-26T04:10:38.435Z,64.06
2019-06-26T04:13:07.064Z,63.87
2019-06-26T04:15:41.937Z,65.53
2019-06-26T04:18:06.065Z,64.13
2019-06-26T04:20:34.698Z,64.02
2019-06-26T04:23:04.789Z,63.98
2019-06-26T04:25:33.439Z,64.24
2019-06-26T04:28:02.266Z,62.94
2019-06-26T04:30:31.010Z,63.24
2019-06-26T04:32:59.636Z,62.03
2019-06-26T04:35:28.274Z,62.59
2019-06-26T04:37:56.970Z,60.54
2019-06-26T04:40:25.693Z,61.03
2019-06-26T04:42:54.313Z,60.23
2019-06-26T04:45:22.971Z,59.00
2019-06-26T04:47:51.596Z,58.66
2019-06-26T04:50:20.416Z,60.19
2019-06-26T04:52:49.087Z,61.09
2019-06-26T04:55:17.714Z,60.26
2019-06-26T04:57:46.350Z,60.64
2019-06-26T05:00:15.535Z,61.22
2019-06-26T05:02:44.147Z,60.29
2019-06-26T05:05:13.072Z,58.66
2019-06-26T05:07:41.736Z,58.68
2019-06-26T05:10:10.951Z,57.66
2019-06-26T05:12:39.583Z,61.08
2019-06-26T05:15:09.079Z,61.15
2019-06-26T05:17:37.757Z,62.27
2019-06-26T05:20:10.908Z,59.09
2019-06-26T05:22:39.590Z,58.57
2019-06-26T05:25:09.177Z,58.95
2019-06-26T05:27:37.795Z,60.68
2019-06-26T05:30:07.313Z,60.81
2019-06-26T05:32:35.903Z,60.51
2019-06-26T05:35:08.684Z,60.61
2019-06-26T05:37:37.345Z,60.59
2019-06-26T05:40:12.865Z,62.40
2019-06-26T05:42:41.473Z,61.95
2019-06-26T05:45:10.648Z,62.21
2019-06-26T05:47:39.269Z,61.17
2019-06-26T05:50:08.403Z,63.58
2019-06-26T05:52:37.144Z,60.61
2019-06-26T05:55:07.273Z,59.81
2019-06-26T05:57:35.905Z,61.22
2019-06-26T06:00:07.488Z,59.12
2019-06-26T06:02:36.114Z,59.63
2019-06-26T06:05:08.491Z,59.80
2019-06-26T06:07:38.060Z,59.58
2019-06-26T06:10:06.979Z,60.25
2019-06-26T06:12:35.603Z,59.72
2019-06-26T06:15:06.348Z,59.63
2019-06-26T06:17:35.074Z,58.48
2019-06-26T06:20:05.020Z,59.42
2019-06-26T06:22:33.685Z,58.42
2019-06-26T06:25:03.058Z,58.92
2019-06-26T06:27:31.763Z,58.86
2019-06-26T06:30:00.435Z,58.37
2019-06-26T06:32:29.111Z,58.10
2019-06-26T06:34:57.676Z,59.36
2019-06-26T06:37:26.337Z,59.42
2019-06-26T06:39:54.971Z,59.05
2019-06-26T06:42:23.580Z,58.31
2019-06-26T06:44:52.259Z,57.45
2019-06-26T06:47:20.875Z,58.71
2019-06-26T06:49:49.495Z,57.07
2019-06-26T06:52:18.153Z,58.65
2019-06-26T06:54:46.776Z,58.39
2019-06-26T06:57:15.401Z,58.46
2019-06-26T06:59:44.059Z,60.08
2019-06-26T07:02:12.684Z,58.55
2019-06-26T07:04:41.310Z,59.13
2019-06-26T07:07:09.954Z,59.22
2019-06-26T07:09:38.526Z,58.90
2019-06-26T07:12:07.130Z,58.98
2019-06-26T07:14:35.784Z,57.65
2019-06-26T07:17:19.224Z,59.12
2019-06-26T07:19:34.845Z,60.23
2019-06-26T07:22:07.101Z,58.37
2019-06-26T07:24:33.815Z,57.83
2019-06-26T07:27:02.433Z,59.63
2019-06-26T07:29:31.087Z,59.09
2019-06-26T07:31:59.715Z,59.41
2019-06-26T07:34:28.337Z,58.46
2019-06-26T07:36:57.009Z,57.21
2019-06-26T07:39:25.811Z,58.99
2019-06-26T07:41:54.426Z,58.40
2019-06-26T07:44:23.069Z,57.84
2019-06-26T07:46:51.713Z,59.96
2019-06-26T07:49:20.331Z,58.03
2019-06-26T07:51:48.987Z,58.78
2019-06-26T07:54:17.609Z,59.94
2019-06-26T07:56:46.226Z,57.45
2019-06-26T07:59:14.878Z,57.92
2019-06-26T08:01:43.504Z,57.86
2019-06-26T08:04:12.189Z,56.54
2019-06-26T08:06:40.889Z,58.29
2019-06-26T08:09:09.471Z,59.32
2019-06-26T08:11:38.090Z,57.33
2019-06-26T08:14:06.743Z,59.04
2019-06-26T08:16:35.364Z,59.84
2019-06-26T08:19:03.982Z,59.30
2019-06-26T08:21:32.651Z,58.60
2019-06-26T08:24:01.268Z,58.42
2019-06-26T08:26:29.898Z,57.81
2019-06-26T08:28:58.576Z,59.28
2019-06-26T08:31:27.196Z,58.65
2019-06-26T08:33:55.820Z,59.27
2019-06-26T08:36:24.478Z,57.37
2019-06-26T08:38:53.113Z,57.56
2019-06-26T08:41:21.665Z,56.87
2019-06-26T08:43:50.321Z,56.57
2019-06-26T08:46:18.951Z,56.57
2019-06-26T08:48:51.580Z,56.55
2019-06-26T08:51:17.928Z,58.10
2019-06-26T08:53:46.552Z,58.21
2019-06-26T08:56:15.175Z,57.18
2019-06-26T08:58:43.834Z,55.04
2019-06-26T09:01:12.450Z,55.51
2019-06-26T09:03:42.205Z,56.61
2019-06-26T09:06:10.907Z,57.85
2019-06-26T09:08:39.532Z,58.96
2019-06-26T09:11:08.156Z,56.16
2019-06-26T09:13:36.807Z,56.15
2019-06-26T09:16:05.431Z,54.26
2019-06-26T09:18:35.907Z,52.21
2019-06-26T09:21:04.427Z,53.04
2019-06-26T09:23:33.046Z,53.14
2019-06-26T09:26:01.701Z,51.92
2019-06-26T09:28:30.323Z,52.28
2019-06-26T09:30:58.944Z,53.23
2019-06-26T09:33:27.569Z,53.81
2019-06-26T09:35:57.163Z,54.41
2019-06-26T09:38:25.784Z,55.24
2019-06-26T09:40:54.315Z,53.06
2019-06-26T09:43:22.976Z,52.89
2019-06-26T09:45:51.593Z,53.01
2019-06-26T09:48:20.213Z,56.13
2019-06-26T09:50:48.873Z,54.23
2019-06-26T09:53:17.489Z,54.95
2019-06-26T09:55:46.118Z,55.16
2019-06-26T09:58:14.767Z,55.72
2019-06-26T10:00:43.394Z,53.82
2019-06-26T10:03:12.012Z,55.39
2019-06-26T10:05:40.984Z,53.13
2019-06-26T10:08:09.637Z,50.58
2019-06-26T10:10:38.215Z,50.29
2019-06-26T10:13:06.868Z,51.54
2019-06-26T10:15:35.484Z,51.52
2019-06-26T10:18:04.203Z,53.00
2019-06-26T10:20:32.894Z,52.06
2019-06-26T10:23:01.512Z,53.14
2019-06-26T10:25:30.143Z,52.91
2019-06-26T10:27:58.781Z,52.54
2019-06-26T10:30:27.400Z,53.50
2019-06-26T10:32:56.014Z,52.50
2019-06-26T10:35:24.676Z,53.47
2019-06-26T10:37:53.291Z,52.27
2019-06-26T10:40:21.921Z,51.08
2019-06-26T10:42:50.602Z,50.82
2019-06-26T10:45:19.364Z,50.63
2019-06-26T10:47:47.993Z,48.10
2019-06-26T10:50:17.241Z,48.71
2019-06-26T10:52:45.855Z,49.29
2019-06-26T10:55:14.772Z,48.02
2019-06-26T10:57:43.416Z,48.70
2019-06-26T11:00:12.541Z,51.60
2019-06-26T11:02:41.157Z,49.36
2019-06-26T11:05:10.411Z,50.31
2019-06-26T11:07:39.029Z,49.04
2019-06-26T11:10:09.050Z,48.43
2019-06-26T11:12:37.692Z,47.24
2019-06-26T11:15:08.305Z,50.28
2019-06-26T11:17:36.957Z,48.65
2019-06-26T11:20:08.764Z,49.03
2019-06-26T11:22:37.378Z,50.32
2019-06-26T11:25:07.994Z,49.28
2019-06-26T11:27:36.811Z,50.97
2019-06-26T11:30:07.733Z,52.47
2019-06-26T11:32:36.343Z,52.48
2019-06-26T11:35:08.625Z,52.85
2019-06-26T11:37:37.267Z,52.20
2019-06-26T11:40:07.181Z,52.77
2019-06-26T11:42:35.824Z,51.02
2019-06-26T11:45:06.134Z,52.08
2019-06-26T11:47:34.757Z,52.54
2019-06-26T11:50:04.840Z,51.42
2019-06-26T11:52:33.558Z,49.20
2019-06-26T11:55:03.577Z,50.04
2019-06-26T11:57:32.601Z,50.08
2019-06-26T12:00:01.555Z,50.91
2019-06-26T12:02:30.631Z,50.88
2019-06-26T12:04:59.273Z,48.75
2019-06-26T12:07:27.878Z,49.88
2019-06-26T12:09:56.449Z,48.26
2019-06-26T12:12:25.142Z,47.28
2019-06-26T12:14:53.701Z,45.71
2019-06-26T12:17:22.331Z,46.57
2019-06-26T12:19:51.017Z,47.37
2019-06-26T12:22:19.634Z,48.09
2019-06-26T12:24:48.247Z,49.21
2019-06-26T12:27:16.911Z,48.58
2019-06-26T12:29:45.460Z,48.22
2019-06-26T12:32:14.086Z,46.02
2019-06-26T12:34:45.079Z,45.74
2019-06-26T12:37:13.082Z,46.55
2019-06-26T12:39:41.830Z,46.23
2019-06-26T12:42:10.430Z,47.23
2019-06-26T12:44:39.048Z,46.59
2019-06-26T12:47:07.665Z,48.44
2019-06-26T12:49:36.328Z,46.06
2019-06-26T12:52:05.133Z,46.30
2019-06-26T12:54:33.757Z,45.47
2019-06-26T12:57:02.401Z,46.48
2019-06-26T12:59:31.014Z,46.16
2019-06-26T13:01:59.634Z,46.68
2019-06-26T13:04:28.278Z,47.67
2019-06-26T13:06:59.056Z,47.87
2019-06-26T13:09:27.278Z,48.79
2019-06-26T13:11:55.894Z,48.96
2019-06-26T13:14:24.514Z,46.66
2019-06-26T13:16:53.124Z,47.15
2019-06-26T13:19:21.777Z,46.82
2019-06-26T13:21:50.681Z,47.76
2019-06-26T13:24:19.260Z,45.73
2019-06-26T13:26:47.923Z,46.92
2019-06-26T13:29:16.541Z,47.45
2019-06-26T13:31:45.087Z,47.87
2019-06-26T13:34:13.736Z,48.39
2019-06-26T13:36:42.354Z,47.11
2019-06-26T13:39:10.969Z,45.36
2019-06-26T13:41:39.625Z,45.67
2019-06-26T13:44:08.241Z,44.87
2019-06-26T13:46:36.859Z,44.38
2019-06-26T13:49:05.515Z,46.34
2019-06-26T13:51:34.212Z,45.72
2019-06-26T13:54:02.774Z,45.90
2019-06-26T13:56:31.415Z,44.89
2019-06-26T13:59:00.050Z,47.21
2019-06-26T14:01:28.652Z,47.08
2019-06-26T14:03:57.303Z,46.24
2019-06-26T14:06:25.917Z,46.23
2019-06-26T14:08:54.578Z,47.12
2019-06-26T14:11:23.261Z,47.06
2019-06-26T14:13:51.883Z,45.21
2019-06-26T14:16:20.532Z,45.55
2019-06-26T14:18:49.262Z,47.27
2019-06-26T14:21:25.478Z,46.20
2019-06-26T14:23:48.243Z,46.01
2019-06-26T14:26:16.884Z,43.75
2019-06-26T14:28:45.500Z,44.89
2019-06-26T14:31:14.120Z,44.08
2019-06-26T14:33:42.768Z,45.72
2019-06-26T14:36:11.380Z,46.18
2019-06-26T14:38:39.998Z,46.03
2019-06-26T14:41:08.645Z,45.59
2019-06-26T14:43:37.259Z,46.02
2019-06-26T14:46:05.801Z,44.80
2019-06-26T14:48:34.453Z,44.25
2019-06-26T14:51:03.074Z,44.08
2019-06-26T14:53:31.682Z,45.60
2019-06-26T14:56:00.329Z,45.49
2019-06-26T14:58:28.941Z,43.85
2019-06-26T15:00:57.558Z,44.00
2019-06-26T15:03:26.228Z,45.05
2019-06-26T15:05:54.831Z,46.66
2019-06-26T15:08:23.448Z,46.63
2019-06-26T15:10:52.100Z,44.87
2019-06-26T15:13:20.730Z,45.64
2019-06-26T15:15:49.354Z,44.54
2019-06-26T15:18:18.000Z,44.46
2019-06-26T15:20:46.629Z,43.54
2019-06-26T15:23:15.186Z,44.13
2019-06-26T15:25:43.823Z,44.73
2019-06-26T15:28:12.449Z,44.58
2019-06-26T15:30:41.071Z,44.94
2019-06-26T15:33:09.728Z,44.80
2019-06-26T15:35:38.344Z,43.95
2019-06-26T15:38:06.974Z,43.14
2019-06-26T15:40:35.620Z,43.27
2019-06-26T15:43:04.246Z,44.26
2019-06-26T15:45:32.872Z,44.95
2019-06-26T15:48:01.525Z,45.81
2019-06-26T15:50:30.178Z,44.13
2019-06-26T15:52:58.770Z,43.63
2019-06-26T15:55:27.430Z,43.35
2019-06-26T15:57:55.983Z,45.05
2019-06-26T16:00:24.601Z,44.17
2019-06-26T16:02:53.262Z,45.62
2019-06-26T16:05:21.887Z,44.43
2019-06-26T16:07:50.510Z,44.89
2019-06-26T16:10:19.172Z,44.95
2019-06-26T16:12:47.792Z,44.49
2019-06-26T16:15:16.521Z,44.77
2019-06-26T16:18:04.352Z,43.76
2019-06-26T16:20:32.987Z,43.68
2019-06-26T16:23:01.617Z,44.34
2019-06-26T16:25:30.202Z,47.46
2019-06-26T16:28:05.560Z,47.72
2019-06-26T16:30:29.089Z,47.14
2019-06-26T16:32:57.729Z,46.94
2019-06-26T16:35:26.423Z,46.36
2019-06-26T16:37:55.048Z,45.84
2019-06-26T16:40:23.701Z,45.72
2019-06-26T16:42:52.318Z,46.91
2019-06-26T16:45:20.937Z,46.33
2019-06-26T16:47:49.599Z,45.67
2019-06-26T16:50:18.256Z,46.61
2019-06-26T16:52:49.818Z,45.46
2019-06-26T16:55:17.215Z,46.50
2019-06-26T16:57:46.046Z,47.26
2019-06-26T17:00:14.971Z,47.01
2019-06-26T17:02:43.628Z,48.21
2019-06-26T17:05:13.720Z,47.47
2019-06-26T17:07:42.337Z,47.71
2019-06-26T17:10:10.986Z,47.27
2019-06-26T17:12:39.606Z,46.60
2019-06-26T17:15:08.728Z,46.82
2019-06-26T17:17:37.383Z,47.62
2019-06-26T17:20:06.729Z,48.49
2019-06-26T17:22:35.513Z,48.38
2019-06-26T17:25:04.660Z,48.58
2019-06-26T17:27:33.276Z,47.79
2019-06-26T17:30:01.884Z,48.04
2019-06-26T17:32:30.639Z,48.52
2019-06-26T17:34:59.275Z,48.33
2019-06-26T17:37:27.881Z,46.74
2019-06-26T17:39:56.544Z,45.48
2019-06-26T17:42:25.158Z,45.96
2019-06-26T17:44:53.784Z,48.15
2019-06-26T17:47:22.438Z,48.78
2019-06-26T17:49:51.076Z,50.84
2019-06-26T17:52:19.672Z,51.29
2019-06-26T17:54:48.322Z,50.07
2019-06-26T17:57:16.938Z,50.91
2019-06-26T17:59:45.567Z,51.70
2019-06-26T18:02:14.242Z,49.89
2019-06-26T18:04:42.863Z,50.74
2019-06-26T18:07:11.648Z,49.87
2019-06-26T18:09:40.406Z,50.16
2019-06-26T18:12:09.027Z,49.60
2019-06-26T18:14:37.661Z,51.65
2019-06-26T18:17:21.108Z,52.45
2019-06-26T18:19:36.674Z,52.97
2019-06-26T18:22:05.381Z,53.57
2019-06-26T18:24:34.117Z,52.60
2019-06-26T18:27:02.754Z,51.36
2019-06-26T18:29:31.402Z,52.90
2019-06-26T18:32:00.061Z,51.43
2019-06-26T18:34:28.693Z,50.52
2019-06-26T18:36:57.323Z,51.15
2019-06-26T18:39:25.985Z,51.43
2019-06-26T18:41:54.689Z,52.23
2019-06-26T18:44:23.325Z,52.69
2019-06-26T18:46:52.063Z,51.58
2019-06-26T18:49:20.698Z,53.19
2019-06-26T18:51:49.327Z,54.82
2019-06-26T18:54:18.007Z,54.80
2019-06-26T18:56:46.613Z,55.03
2019-06-26T18:59:15.249Z,54.34
2019-06-26T19:01:43.998Z,53.92
2019-06-26T19:04:12.637Z,53.13
2019-06-26T19:06:41.311Z,55.07
2019-06-26T19:09:09.934Z,53.36
2019-06-26T19:11:38.641Z,52.70
2019-06-26T19:14:07.340Z,52.69
2019-06-26T19:16:36.498Z,52.87
2019-06-26T19:19:05.236Z,53.03
2019-06-26T19:21:36.871Z,52.30
2019-06-26T19:24:10.131Z,52.36
2019-06-26T19:26:34.872Z,54.14
2019-06-26T19:29:03.513Z,54.05
2019-06-26T19:31:32.189Z,52.86
2019-06-26T19:34:00.816Z,52.59
2019-06-26T19:36:29.530Z,51.84
2019-06-26T19:38:59.587Z,53.21
2019-06-26T19:41:28.318Z,52.78
2019-06-26T19:43:57.945Z,52.74
2019-06-26T19:46:26.710Z,51.30
2019-06-26T19:48:57.594Z,51.71
2019-06-26T19:51:25.762Z,51.04
2019-06-26T19:53:54.430Z,51.59
2019-06-26T19:56:23.063Z,51.07
2019-06-26T19:58:51.759Z,52.18
2019-06-26T20:01:20.518Z,51.87
2019-06-26T20:03:49.223Z,51.43
2019-06-26T20:06:17.861Z,51.57
2019-06-26T20:08:53.364Z,51.43
2019-06-26T20:11:16.965Z,50.97
2019-06-26T20:13:45.658Z,51.34
2019-06-26T20:16:14.333Z,52.79
2019-06-26T20:18:42.964Z,53.57
2019-06-26T20:21:11.593Z,53.35
2019-06-26T20:23:40.251Z,51.91
2019-06-26T20:26:08.908Z,51.43
2019-06-26T20:28:37.531Z,51.46
2019-06-26T20:31:06.200Z,52.58
2019-06-26T20:33:34.834Z,51.47
2019-06-26T20:36:03.492Z,51.62
2019-06-26T20:38:32.123Z,51.61
2019-06-26T20:41:01.639Z,51.70
2019-06-26T20:43:30.276Z,52.01
2019-06-26T20:45:58.934Z,52.91
2019-06-26T20:48:27.756Z,52.84
2019-06-26T20:50:56.394Z,52.91
2019-06-26T20:53:27.895Z,52.85
2019-06-26T20:55:55.395Z,53.24
2019-06-26T20:58:24.017Z,53.13
2019-06-26T21:00:52.767Z,53.67
2019-06-26T21:03:21.474Z,53.67
2019-06-26T21:05:50.081Z,53.39
2019-06-26T21:08:18.663Z,53.58
2019-06-26T21:10:47.287Z,53.16
2019-06-26T21:13:15.911Z,53.55
2019-06-26T21:15:44.564Z,53.11
2019-06-26T21:18:13.366Z,53.85
2019-06-26T21:20:41.989Z,53.19
2019-06-26T21:23:18.504Z,53.37
2019-06-26T21:25:40.984Z,54.28
2019-06-26T21:28:09.621Z,53.55
2019-06-26T21:30:38.283Z,53.59
2019-06-26T21:33:06.912Z,56.90
2019-06-26T21:35:35.543Z,58.80
2019-06-26T21:38:04.203Z,58.26
2019-06-26T21:40:32.823Z,61.16
2019-06-26T21:43:02.841Z,58.68
2019-06-26T21:45:31.496Z,58.08
2019-06-26T21:48:00.133Z,58.44
2019-06-26T21:50:29.297Z,57.89
2019-06-26T21:52:58.019Z,56.93
2019-06-26T21:55:34.312Z,57.82
2019-06-26T21:57:57.032Z,58.82
2019-06-26T22:00:25.998Z,60.17
2019-06-26T22:02:57.732Z,59.60
2019-06-26T22:05:25.084Z,61.39
2019-06-26T22:07:53.741Z,60.90
2019-06-26T22:10:22.370Z,60.10
2019-06-26T22:12:50.999Z,58.76
2019-06-26T22:15:19.659Z,58.16
2019-06-26T22:17:48.302Z,58.12
2019-06-26T22:20:17.408Z,59.31
2019-06-26T22:22:46.072Z,57.69
2019-06-26T22:25:15.230Z,57.54
2019-06-26T22:27:43.897Z,57.41
2019-06-26T22:30:13.064Z,58.92
2019-06-26T22:32:41.990Z,58.62
2019-06-26T22:35:11.008Z,58.57
2019-06-26T22:37:39.663Z,58.71
2019-06-26T22:40:08.579Z,58.01
2019-06-26T22:42:37.220Z,57.79
2019-06-26T22:45:07.714Z,59.00
2019-06-26T22:47:36.313Z,59.37
2019-06-26T22:50:07.374Z,58.88
2019-06-26T22:52:36.033Z,59.13
2019-06-26T22:55:06.557Z,59.48
2019-06-26T22:57:35.187Z,59.33
2019-06-26T23:00:05.818Z,59.37
2019-06-26T23:02:34.438Z,59.13
2019-06-26T23:05:03.373Z,58.07
2019-06-26T23:07:32.039Z,59.49
2019-06-26T23:10:00.661Z,59.63
2019-06-26T23:12:29.288Z,59.52
2019-06-26T23:14:57.948Z,59.91
2019-06-26T23:17:26.567Z,60.75
2019-06-26T23:19:55.187Z,61.15
2019-06-26T23:22:23.859Z,61.32
2019-06-26T23:24:52.483Z,60.81
2019-06-26T23:27:21.172Z,61.30
2019-06-26T23:29:49.834Z,60.06
2019-06-26T23:32:18.453Z,58.86
2019-06-26T23:34:47.075Z,58.04
2019-06-26T23:37:15.777Z,57.68
2019-06-26T23:39:44.396Z,58.41
2019-06-26T23:42:13.018Z,58.77
2019-06-26T23:44:41.675Z,60.62
2019-06-26T23:47:11.177Z,61.66
2019-06-26T23:49:39.765Z,63.18
2019-06-26T23:52:08.412Z,63.93
2019-06-26T23:54:37.042Z,62.11
2019-06-26T23:57:05.658Z,60.88
2019-06-26T23:59:34.312Z,59.05
